Standing Rock, South Dakota
Current Conditions -  °F | °C
As of 2:52 AM on Friday 24 Oct 2014 (Local Time) from KMBG Reporting Station
Clear Clear  
Wind Chill: 39°   Ceiling: Unl
Heat Index: 42°   Visibility: 10mi
Dew Point: 38°   Wind: 5mph
Humidity: 85%   Direction: 110°ESE
Pressure: 29.82"   Gusts: NA
Location:  45.7843°N, 100.515°W
Report Text: KMBG 240852Z AUTO 11004KT 10SM CLR 06/03 A2982 RMK AO2 SLP098 T00560033 58003
Loading
Personal Weather Stations






























Interactive Weather Map
Tropical Storm Tracking
New forecast layout! Learn more

10-Day Weather Forecast

Advertisements
Track Severe Weather on mobile